Time;durP1;ratioP1;P1;durP2;ratioP2;P2;SDS_P1;SDS_P2;PMS_P1;PMS_P2;Temp;Humidity;BMP_temperature;BMP_pressure;BME280_temperature;BME280_humidity;BME280_pressure;Samples;Min_cycle;Max_cycle;Signal;HPM_P1;HPM_P2
2023/09/07 00:00:18;;;;;;;4.88;3.15;;;;;;;21.32;71.04;101989.22;5038380;27;96485;-28
2023/09/07 00:02:44;;;;;;;7.07;3.08;;;;;;;21.24;70.86;101980.78;5057075;27;96776;-27
2023/09/07 00:05:09;;;;;;;4.72;3.03;;;;;;;21.27;71.42;101982.41;5056371;27;98402;-30
2023/09/07 00:07:35;;;;;;;7.35;3.05;;;;;;;21.24;71.15;101979.88;5056242;27;97750;-27
2023/09/07 00:10:01;;;;;;;7.50;3.55;;;;;;;21.17;71.00;101972.19;5037744;27;96662;-27
2023/09/07 00:12:27;;;;;;;5.35;3.33;;;;;;;21.13;71.64;101967.94;5036849;27;96833;-27
2023/09/07 00:14:54;;;;;;;5.20;3.50;;;;;;;21.11;72.20;101961.69;5056216;27;97970;-27
2023/09/07 00:17:20;;;;;;;6.32;3.38;;;;;;;21.05;71.68;101964.16;5037765;27;100916;-31
2023/09/07 00:19:47;;;;;;;9.00;3.35;;;;;;;21.06;72.16;101975.00;5037985;27;96566;-27
2023/09/07 00:22:12;;;;;;;7.53;3.28;;;;;;;21.05;71.83;101973.28;5056374;27;96933;-27
2023/09/07 00:24:38;;;;;;;7.18;3.78;;;;;;;21.03;71.91;101971.66;5056191;27;98464;-27
2023/09/07 00:27:07;;;;;;;6.85;3.63;;;;;;;20.96;72.35;101968.56;5056400;27;97777;-28
2023/09/07 00:29:34;;;;;;;6.28;3.42;;;;;;;20.94;72.76;101981.59;5037940;27;96572;-27
2023/09/07 00:31:59;;;;;;;6.05;3.70;;;;;;;20.89;72.97;101964.59;5056427;27;96780;-29
2023/09/07 00:34:25;;;;;;;6.25;3.60;;;;;;;20.89;72.73;101975.63;5055167;27;97403;-27
2023/09/07 00:36:50;;;;;;;7.55;3.58;;;;;;;20.86;73.22;101970.41;5055684;27;98901;-28
2023/09/07 00:39:15;;;;;;;10.50;4.07;;;;;;;20.83;73.09;101970.63;5056338;27;96432;-27
2023/09/07 00:41:41;;;;;;;5.65;3.38;;;;;;;20.78;73.19;101977.44;5037164;27;96822;-29
2023/09/07 00:44:06;;;;;;;5.45;3.22;;;;;;;20.74;72.75;101973.19;5037295;27;100965;-27
2023/09/07 00:46:32;;;;;;;8.25;3.35;;;;;;;20.70;73.55;101974.47;5037390;27;99446;-27
2023/09/07 00:48:57;;;;;;;6.63;3.15;;;;;;;20.67;73.49;101973.88;5055997;27;96563;-27
2023/09/07 00:51:23;;;;;;;6.65;3.42;;;;;;;20.60;73.98;101972.66;5037984;27;96905;-27
2023/09/07 00:53:49;;;;;;;5.38;3.03;;;;;;;20.61;73.60;101978.00;5055636;27;97344;-27
2023/09/07 00:56:16;;;;;;;6.38;3.50;;;;;;;20.54;73.73;101968.50;5037115;27;101424;-27
2023/09/07 00:58:42;;;;;;;5.30;3.25;;;;;;;20.55;73.82;101971.16;5055214;27;96469;-27
2023/09/07 01:01:08;;;;;;;7.25;3.40;;;;;;;20.50;74.02;101953.28;5037430;27;96848;-27
2023/09/07 01:03:34;;;;;;;10.55;3.80;;;;;;;20.50;73.99;101956.91;5036760;27;101070;-27
2023/09/07 01:06:26;;;;;;;7.53;3.63;;;;;;;20.49;74.99;101954.25;5055408;27;97955;-27
2023/09/07 01:08:56;;;;;;;7.35;3.80;;;;;;;20.37;73.59;101940.53;5024138;27;96825;-27
2023/09/07 01:11:22;;;;;;;7.28;3.70;;;;;;;20.46;73.89;101960.91;5055492;27;96521;-27
2023/09/07 01:13:48;;;;;;;5.90;3.60;;;;;;;20.41;73.65;101946.66;5055397;27;98055;-27
2023/09/07 01:16:14;;;;;;;6.18;3.58;;;;;;;20.42;74.04;101962.16;5037128;27;101091;-27
2023/09/07 01:18:40;;;;;;;5.57;3.63;;;;;;;20.37;73.70;101953.44;5055529;27;96585;-26
2023/09/07 01:21:07;;;;;;;4.95;3.08;;;;;;;20.41;74.10;101952.19;5055631;27;96728;-27
2023/09/07 01:23:37;;;;;;;6.60;3.60;;;;;;;20.33;74.58;101951.94;5035518;27;101012;-27
2023/09/07 01:26:05;;;;;;;6.95;3.75;;;;;;;20.33;74.32;101947.34;5036733;27;101284;-27
2023/09/07 01:28:30;;;;;;;5.75;3.38;;;;;;;20.34;74.34;101960.06;5036823;27;96698;-27
2023/09/07 01:30:57;;;;;;;5.40;3.30;;;;;;;20.27;75.06;101958.84;5055372;27;96811;-28
2023/09/07 01:33:22;;;;;;;7.68;4.30;;;;;;;20.30;74.13;101953.06;5036738;27;100997;-27
2023/09/07 01:35:47;;;;;;;6.25;3.85;;;;;;;20.27;74.66;101950.59;5054668;27;98886;-27
2023/09/07 01:38:13;;;;;;;8.02;4.10;;;;;;;20.21;74.80;101947.50;5055458;27;96574;-27
2023/09/07 01:40:38;;;;;;;6.03;4.03;;;;;;;20.18;74.99;101948.63;5055381;27;96855;-28
2023/09/07 01:43:04;;;;;;;7.90;4.40;;;;;;;20.18;74.29;101948.63;5054742;27;97995;-27
2023/09/07 01:45:29;;;;;;;6.80;3.88;;;;;;;20.17;75.02;101949.66;5054673;27;97792;-27
2023/09/07 01:47:54;;;;;;;6.53;4.03;;;;;;;20.20;75.20;101956.75;5054803;27;96616;-28
2023/09/07 01:50:20;;;;;;;10.32;4.50;;;;;;;20.21;75.21;101953.00;5055085;27;96792;-27
2023/09/07 01:52:49;;;;;;;5.50;3.72;;;;;;;20.12;74.68;101944.53;5054593;27;99623;-27
2023/09/07 01:55:14;;;;;;;6.65;4.05;;;;;;;20.17;74.93;101962.53;5036189;27;101491;-27
2023/09/07 01:57:40;;;;;;;6.85;4.00;;;;;;;20.08;75.27;101948.53;5055422;27;96453;-29
2023/09/07 02:00:06;;;;;;;7.28;4.30;;;;;;;20.07;75.75;101956.91;5055028;27;96774;-27
2023/09/07 02:02:31;;;;;;;6.82;4.15;;;;;;;20.04;76.02;101960.78;5036227;27;100769;-28
2023/09/07 02:04:56;;;;;;;6.88;4.32;;;;;;;20.01;75.55;101955.56;5055064;27;97773;-27
2023/09/07 02:07:22;;;;;;;5.82;3.95;;;;;;;19.99;76.08;101959.44;5054655;27;96640;-28
2023/09/07 02:09:47;;;;;;;6.15;4.30;;;;;;;19.92;76.08;101954.44;5055065;27;96877;-29
2023/09/07 02:12:13;;;;;;;7.07;4.05;;;;;;;19.92;76.21;101959.94;5054134;27;97407;-28
2023/09/07 02:14:38;;;;;;;8.05;4.30;;;;;;;19.89;75.92;101957.44;5054516;27;97422;-27
2023/09/07 02:17:04;;;;;;;7.10;4.07;;;;;;;19.91;75.94;101968.34;5036358;27;96639;-29
2023/09/07 02:19:29;;;;;;;8.00;4.07;;;;;;;19.88;75.87;101960.34;5054515;27;96842;-27
2023/09/07 02:21:55;;;;;;;7.13;4.05;;;;;;;19.87;76.13;101967.69;5054491;27;97895;-28
2023/09/07 02:24:20;;;;;;;6.70;4.20;;;;;;;19.85;76.44;101955.09;5054264;27;98452;-27
2023/09/07 02:26:46;;;;;;;8.48;4.32;;;;;;;19.84;76.15;101959.72;5054764;27;96529;-27
2023/09/07 02:29:12;;;;;;;7.35;4.22;;;;;;;19.77;76.61;101950.22;5054755;27;96782;-30
2023/09/07 02:31:39;;;;;;;8.75;4.47;;;;;;;19.80;76.21;101949.09;5054372;27;98007;-27
2023/09/07 02:34:05;;;;;;;6.43;3.55;;;;;;;19.79;76.82;101952.88;5035947;27;100827;-27
2023/09/07 02:36:30;;;;;;;7.50;4.18;;;;;;;19.76;76.46;101954.00;5055391;27;96586;-27
2023/09/07 02:38:55;;;;;;;7.53;4.55;;;;;;;19.72;77.17;101944.25;5057868;27;96929;-27
2023/09/07 02:41:21;;;;;;;7.35;4.50;;;;;;;19.72;77.41;101952.50;5057253;27;99338;-27
2023/09/07 02:43:46;;;;;;;7.93;4.45;;;;;;;19.70;77.19;101966.34;5057228;27;97266;-29
2023/09/07 02:46:11;;;;;;;6.85;4.03;;;;;;;19.68;77.12;101962.00;5058009;27;96713;-27
2023/09/07 02:48:37;;;;;;;6.30;4.00;;;;;;;19.67;76.44;101965.72;5057818;27;96827;-27
2023/09/07 02:51:02;;;;;;;7.28;4.32;;;;;;;19.60;76.82;101953.47;5039081;27;98981;-27
2023/09/07 02:53:29;;;;;;;6.60;4.07;;;;;;;19.61;77.18;101958.81;5039735;27;98788;-27
2023/09/07 02:55:54;;;;;;;7.38;4.60;;;;;;;19.63;77.13;101958.72;5039453;27;96580;-28
2023/09/07 02:58:22;;;;;;;8.43;5.07;;;;;;;19.59;76.90;101957.22;5057331;27;96875;-27
2023/09/07 03:00:47;;;;;;;7.60;4.10;;;;;;;19.59;76.93;101955.31;5038472;27;99359;-27
2023/09/07 03:03:14;;;;;;;8.30;4.72;;;;;;;19.58;77.34;101961.84;5057316;27;99208;-28
2023/09/07 03:05:43;;;;;;;8.13;4.15;;;;;;;19.57;77.75;101959.19;5039276;27;96645;-28
2023/09/07 03:08:09;;;;;;;7.53;4.43;;;;;;;19.53;77.15;101961.34;5057553;27;96785;-27
2023/09/07 03:10:39;;;;;;;8.82;4.72;;;;;;;19.51;77.30;101964.22;5057213;27;98036;-30
2023/09/07 03:13:05;;;;;;;8.15;4.15;;;;;;;19.45;77.03;101961.97;5038827;27;101089;-27
2023/09/07 03:15:31;;;;;;;8.02;4.57;;;;;;;19.51;77.40;101960.59;5038914;27;96709;-27
2023/09/07 03:17:56;;;;;;;7.70;4.47;;;;;;;19.50;77.41;101954.22;5057969;27;96672;-27
2023/09/07 03:20:22;;;;;;;7.60;4.60;;;;;;;19.50;77.13;101959.72;5056883;27;99430;-27
2023/09/07 03:22:48;;;;;;;7.25;4.20;;;;;;;19.43;77.12;101957.59;5057091;27;97790;-28
2023/09/07 03:25:14;;;;;;;7.05;4.65;;;;;;;19.46;77.89;101951.84;5056738;27;96475;-27
2023/09/07 03:27:39;;;;;;;8.85;5.30;;;;;;;19.47;77.02;101951.75;5038821;27;96859;-27
2023/09/07 03:30:06;;;;;;;9.05;4.60;;;;;;;19.46;78.30;101955.47;5057335;27;97404;-28
2023/09/07 03:32:33;;;;;;;7.65;4.43;;;;;;;19.44;77.96;101960.22;5038363;27;100825;-27
2023/09/07 03:35:00;;;;;;;8.90;4.97;;;;;;;19.40;78.07;101961.47;5038621;27;96575;-29
2023/09/07 03:37:26;;;;;;;8.57;4.72;;;;;;;19.42;77.69;101956.72;5056984;27;96869;-28
2023/09/07 03:39:51;;;;;;;10.75;4.95;;;;;;;19.38;78.05;101952.47;5056666;27;97452;-27
2023/09/07 03:42:17;;;;;;;6.78;4.57;;;;;;;19.42;78.05;101953.97;5056567;27;97356;-27
2023/09/07 03:44:42;;;;;;;7.40;4.25;;;;;;;19.38;78.15;101952.47;5038886;27;96697;-28
2023/09/07 03:47:08;;;;;;;7.65;4.38;;;;;;;19.40;78.33;101952.34;5056797;27;96781;-27
2023/09/07 03:49:34;;;;;;;9.02;4.35;;;;;;;19.38;77.81;101959.84;5037803;27;99280;-27
2023/09/07 03:51:59;;;;;;;7.65;4.90;;;;;;;19.33;78.41;101956.59;5056557;27;97893;-27
2023/09/07 03:54:25;;;;;;;7.15;4.75;;;;;;;19.33;77.94;101956.59;5038431;27;96656;-27
2023/09/07 03:56:50;;;;;;;8.38;5.28;;;;;;;19.33;78.31;101960.22;5056602;27;96861;-27
2023/09/07 03:59:15;;;;;;;9.52;4.60;;;;;;;19.30;78.69;101972.31;5056457;27;98182;-27
2023/09/07 04:01:41;;;;;;;8.73;4.97;;;;;;;19.25;78.96;101951.72;5056625;27;97709;-27
2023/09/07 04:04:06;;;;;;;8.75;4.47;;;;;;;19.24;78.83;101958.22;5056789;27;96471;-28
2023/09/07 04:06:31;;;;;;;8.05;4.57;;;;;;;19.23;78.61;101965.56;5056907;27;96890;-27
2023/09/07 04:08:57;;;;;;;8.43;4.68;;;;;;;19.21;79.04;101970.34;5056289;27;98410;-27
2023/09/07 04:11:22;;;;;;;8.55;4.88;;;;;;;19.12;79.15;101954.59;5056331;27;97474;-27
2023/09/07 04:13:48;;;;;;;7.88;4.60;;;;;;;19.10;78.83;101957.44;5056161;27;96509;-27
2023/09/07 04:16:13;;;;;;;7.68;4.40;;;;;;;19.17;78.82;101967.97;5056169;27;96941;-28
2023/09/07 04:18:39;;;;;;;8.82;5.25;;;;;;;19.16;79.19;101966.19;5056294;27;97889;-28
2023/09/07 04:21:08;;;;;;;7.10;4.70;;;;;;;19.14;78.66;101970.94;5056281;27;97733;-27
2023/09/07 04:23:36;;;;;;;7.85;4.60;;;;;;;19.09;79.30;101974.94;5037855;27;96753;-28
2023/09/07 04:26:09;;;;;;;8.20;4.85;;;;;;;19.09;79.31;101965.78;5038031;27;96846;-28
2023/09/07 04:28:35;;;;;;;8.38;4.80;;;;;;;19.07;78.80;101974.19;5037514;27;101382;-27
2023/09/07 04:31:01;;;;;;;8.43;4.80;;;;;;;19.09;79.17;101977.69;5056439;27;97807;-27
2023/09/07 04:33:30;;;;;;;8.90;5.18;;;;;;;19.04;79.01;101968.03;5037883;27;96726;-27
2023/09/07 04:35:56;;;;;;;8.90;5.07;;;;;;;19.04;78.96;101968.03;5056158;27;96853;-27
2023/09/07 04:38:21;;;;;;;9.40;5.15;;;;;;;19.01;78.85;101962.81;5055266;27;97945;-27
2023/09/07 04:40:46;;;;;;;8.70;4.60;;;;;;;19.00;79.26;101970.19;5055574;27;98319;-28
2023/09/07 04:43:12;;;;;;;9.63;5.10;;;;;;;19.00;78.91;101966.56;5055269;27;96800;-27
2023/09/07 04:45:45;;;;;;;10.10;5.32;;;;;;;18.90;79.24;101955.41;5056027;27;96769;-28
2023/09/07 04:48:11;;;;;;;8.45;5.03;;;;;;;18.93;79.77;101966.16;5037344;27;100811;-27
2023/09/07 04:50:37;;;;;;;9.15;4.75;;;;;;;18.86;79.24;101964.91;5037300;27;100952;-27
2023/09/07 04:53:02;;;;;;;10.10;5.53;;;;;;;18.92;78.90;101980.00;5056159;27;96452;-27
2023/09/07 04:55:28;;;;;;;7.32;4.85;;;;;;;18.91;79.72;101973.66;5056049;27;96785;-27
2023/09/07 04:57:53;;;;;;;8.77;5.50;;;;;;;18.94;79.47;101978.88;5036947;27;98851;-27
2023/09/07 05:00:18;;;;;;;8.85;5.43;;;;;;;18.89;79.64;101972.88;5054932;27;98101;-28
2023/09/07 05:02:44;;;;;;;9.38;4.82;;;;;;;18.87;79.12;101973.00;5055119;27;96552;-28
2023/09/07 05:05:09;;;;;;;8.48;4.97;;;;;;;18.90;79.60;101982.84;5055637;27;96827;-29
2023/09/07 05:07:35;;;;;;;9.52;5.07;;;;;;;18.87;79.42;101983.09;5055470;27;98030;-27
2023/09/07 05:10:00;;;;;;;8.90;5.50;;;;;;;18.89;80.23;101992.97;5055218;27;99240;-28
2023/09/07 05:12:26;;;;;;;8.38;4.85;;;;;;;18.88;79.38;101993.13;5055446;27;96657;-27
2023/09/07 05:14:51;;;;;;;7.05;4.72;;;;;;;18.83;80.21;101987.09;5037667;27;96789;-28
2023/09/07 05:17:16;;;;;;;10.02;5.22;;;;;;;18.86;79.62;101997.84;5055360;27;97910;-28
2023/09/07 05:19:42;;;;;;;8.55;5.38;;;;;;;18.81;79.71;101995.47;5056047;27;96526;-27
2023/09/07 05:22:08;;;;;;;10.55;5.63;;;;;;;18.81;78.96;101992.72;5055290;27;96443;-27
2023/09/07 05:24:33;;;;;;;9.02;5.60;;;;;;;18.81;79.35;101997.34;5037175;27;96798;-27
2023/09/07 05:26:58;;;;;;;8.20;4.65;;;;;;;18.79;79.95;101997.44;5054853;27;97849;-27
2023/09/07 05:29:24;;;;;;;9.38;5.80;;;;;;;18.77;79.71;101990.31;5055110;27;97772;-28
2023/09/07 05:31:49;;;;;;;8.18;5.00;;;;;;;18.78;79.79;101994.81;5055124;27;96599;-27
2023/09/07 05:34:14;;;;;;;9.15;4.88;;;;;;;18.77;79.35;101991.19;5055475;27;96827;-27
2023/09/07 05:36:40;;;;;;;9.80;4.82;;;;;;;18.76;80.07;101991.28;5054576;27;97881;-27
2023/09/07 05:39:06;;;;;;;7.57;4.63;;;;;;;18.73;79.33;101989.63;5054989;27;97266;-29
2023/09/07 05:41:31;;;;;;;8.18;4.50;;;;;;;18.79;79.41;101993.84;5054898;27;96596;-27
2023/09/07 05:43:57;;;;;;;10.45;5.18;;;;;;;18.83;79.56;101992.56;5055275;27;96927;-27
2023/09/07 05:46:22;;;;;;;12.00;5.50;;;;;;;18.85;79.38;102001.56;5055199;27;97394;-27
2023/09/07 05:48:47;;;;;;;11.80;5.45;;;;;;;18.82;79.26;101991.69;5054623;27;99174;-27
2023/09/07 05:51:13;;;;;;;7.13;4.72;;;;;;;18.84;79.84;101999.84;5054138;27;96730;-27
2023/09/07 05:53:39;;;;;;;12.35;5.13;;;;;;;18.81;79.60;101991.84;5055093;27;96823;-27
2023/09/07 05:56:05;;;;;;;22.92;5.55;;;;;;;18.82;79.46;101996.31;5036123;27;101693;-28
2023/09/07 05:58:30;;;;;;;7.53;4.93;;;;;;;18.89;79.03;102009.44;5054786;27;97789;-28
2023/09/07 06:00:55;;;;;;;11.23;5.28;;;;;;;18.87;79.80;102002.31;5036650;27;96665;-27
2023/09/07 06:03:21;;;;;;;8.25;5.32;;;;;;;18.95;79.14;102007.22;5055108;27;96567;-27
2023/09/07 06:05:46;;;;;;;8.80;4.72;;;;;;;18.91;79.38;102000.22;5054346;27;97392;-27
2023/09/07 06:08:12;;;;;;;11.98;5.28;;;;;;;18.99;78.79;102019.72;5055113;27;97920;-28
2023/09/07 06:10:38;;;;;;;8.05;4.97;;;;;;;18.95;79.04;102007.22;5056790;27;96533;-27
2023/09/07 06:13:03;;;;;;;10.45;5.43;;;;;;;18.97;78.66;102010.72;5058288;27;96729;-27
2023/09/07 06:15:29;;;;;;;12.40;4.97;;;;;;;19.06;78.91;102018.22;5057702;27;97316;-27
2023/09/07 06:17:55;;;;;;;8.18;4.82;;;;;;;19.10;78.64;102022.50;5039817;27;100969;-27
2023/09/07 06:20:20;;;;;;;9.85;5.18;;;;;;;19.13;78.35;102019.50;5058047;27;96683;-27
2023/09/07 06:22:46;;;;;;;8.05;4.78;;;;;;;19.19;78.45;102015.41;5057956;27;96862;-27
2023/09/07 06:25:11;;;;;;;9.13;5.50;;;;;;;19.25;78.37;102018.53;5058096;27;97919;-29
2023/09/07 06:27:37;;;;;;;12.63;5.80;;;;;;;19.32;77.98;102018.91;5058094;27;97975;-27
2023/09/07 06:30:05;;;;;;;10.75;5.07;;;;;;;19.42;77.65;102025.41;5039910;27;96563;-27
2023/09/07 06:32:30;;;;;;;8.23;5.10;;;;;;;19.48;77.10;102016.69;5040032;27;96873;-27
2023/09/07 06:34:55;;;;;;;8.52;4.95;;;;;;;19.62;76.77;102028.44;5057612;27;96639;-27
2023/09/07 06:37:21;;;;;;;12.45;5.57;;;;;;;19.75;76.98;102031.97;5057876;27;98299;-27
2023/09/07 06:39:46;;;;;;;8.35;4.68;;;;;;;19.81;76.51;102020.47;5057304;27;97262;-27
2023/09/07 06:42:11;;;;;;;7.20;4.63;;;;;;;19.98;76.17;102030.09;5057225;27;96871;-27
2023/09/07 06:44:37;;;;;;;8.90;5.07;;;;;;;20.11;75.97;102014.28;5057882;27;98039;-27
2023/09/07 06:47:02;;;;;;;6.78;4.60;;;;;;;20.18;76.02;102027.53;5057848;27;97748;-27
2023/09/07 06:49:29;;;;;;;8.05;5.25;;;;;;;20.27;75.22;102015.78;5058090;27;96531;-28
2023/09/07 06:51:57;;;;;;;8.48;5.03;;;;;;;20.53;74.76;102019.06;5057855;27;96749;-27
2023/09/07 06:54:23;;;;;;;7.60;4.78;;;;;;;20.67;73.96;102027.06;5039104;27;101063;-27
2023/09/07 06:56:48;;;;;;;11.98;5.28;;;;;;;20.84;73.47;102019.22;5057750;27;97102;-28
2023/09/07 06:59:14;;;;;;;7.20;4.35;;;;;;;20.99;73.11;102026.16;5058203;27;96466;-28
2023/09/07 07:01:40;;;;;;;7.13;4.45;;;;;;;21.20;72.49;102023.41;5039351;27;96824;-28
2023/09/07 07:04:06;;;;;;;6.88;4.35;;;;;;;21.38;71.88;102023.63;5055819;27;97961;-28
2023/09/07 07:06:31;;;;;;;7.88;4.72;;;;;;;21.51;71.34;102031.75;5057174;27;97282;-29
2023/09/07 07:08:57;;;;;;;8.57;4.85;;;;;;;21.61;70.97;102029.91;5057428;27;96492;-28
2023/09/07 07:11:22;;;;;;;8.02;4.75;;;;;;;21.83;70.22;102026.06;5057622;27;96764;-27
2023/09/07 07:13:47;;;;;;;8.55;4.32;;;;;;;21.92;69.67;102019.72;5057237;27;98041;-27
2023/09/07 07:16:13;;;;;;;7.10;4.55;;;;;;;21.99;68.95;102031.94;5057185;27;97793;-28
2023/09/07 07:18:39;;;;;;;8.27;4.32;;;;;;;22.09;69.09;102025.56;5039291;27;96770;-28
2023/09/07 07:21:05;;;;;;;8.95;4.13;;;;;;;22.22;68.67;102029.00;5057721;27;96781;-27
2023/09/07 07:23:30;;;;;;;7.22;4.30;;;;;;;22.38;67.87;102021.03;5038028;27;101152;-27
2023/09/07 07:25:56;;;;;;;9.30;4.22;;;;;;;22.53;67.97;102026.16;5056772;27;99699;-27
2023/09/07 07:28:21;;;;;;;7.13;4.15;;;;;;;22.59;67.28;102023.66;5057026;27;96683;-27
2023/09/07 07:30:48;;;;;;;8.30;4.55;;;;;;;22.77;66.83;102026.59;5056983;27;96896;-28
2023/09/07 07:33:13;;;;;;;8.00;4.60;;;;;;;22.83;66.68;102017.69;5038403;27;100899;-28
2023/09/07 07:35:38;;;;;;;10.18;4.25;;;;;;;22.97;66.56;102012.75;5057214;27;97287;-27
2023/09/07 07:38:04;;;;;;;9.32;4.57;;;;;;;23.11;66.03;102015.09;5057160;27;96587;-27
2023/09/07 07:40:30;;;;;;;8.93;4.50;;;;;;;23.25;65.40;102016.53;5056836;27;96804;-27
2023/09/07 07:42:56;;;;;;;9.18;4.45;;;;;;;23.40;65.15;102017.78;5056460;27;98145;-27
2023/09/07 07:45:21;;;;;;;7.82;3.92;;;;;;;23.56;65.07;102008.00;5057224;27;97861;-28
2023/09/07 07:47:48;;;;;;;7.47;3.95;;;;;;;23.71;64.70;102009.22;5056841;27;96744;-27
2023/09/07 07:50:14;;;;;;;6.95;4.00;;;;;;;23.69;63.54;102000.22;5038570;27;96841;-27
2023/09/07 07:52:40;;;;;;;10.82;5.35;;;;;;;23.74;64.08;102004.31;5055868;27;99285;-27
2023/09/07 07:55:06;;;;;;;9.48;4.22;;;;;;;23.89;63.66;102006.56;5056433;27;99006;-27
2023/09/07 07:57:32;;;;;;;8.95;4.65;;;;;;;23.95;63.59;101998.53;5056566;27;96530;-27
2023/09/07 07:59:57;;;;;;;8.43;4.07;;;;;;;24.13;63.23;102004.09;5038418;27;96990;-28
2023/09/07 08:02:23;;;;;;;9.45;4.90;;;;;;;24.23;62.89;101992.09;5056736;27;97371;-28
2023/09/07 08:04:48;;;;;;;8.18;4.05;;;;;;;24.15;62.17;101998.41;5056244;27;99150;-27
2023/09/07 08:07:14;;;;;;;7.50;4.40;;;;;;;24.14;62.08;102000.28;5038246;27;96563;-27
2023/09/07 08:09:39;;;;;;;7.13;3.70;;;;;;;24.34;62.22;101997.41;5056830;27;96870;-27
2023/09/07 08:12:05;;;;;;;8.88;4.15;;;;;;;24.52;61.81;101997.44;5056260;27;98743;-28
2023/09/07 08:14:31;;;;;;;9.65;4.35;;;;;;;24.57;61.45;101989.53;5037726;27;100753;-27
2023/09/07 08:16:57;;;;;;;9.65;4.47;;;;;;;24.68;61.42;101985.66;5055660;27;96648;-27
2023/09/07 08:19:22;;;;;;;8.60;4.25;;;;;;;24.82;61.21;101992.53;5056525;27;96638;-27
2023/09/07 08:21:47;;;;;;;7.93;4.03;;;;;;;24.84;60.54;101984.91;5056320;27;97945;-27
2023/09/07 08:24:13;;;;;;;7.30;3.78;;;;;;;25.04;60.83;101991.16;5056018;27;97773;-27
2023/09/07 08:26:38;;;;;;;9.80;3.72;;;;;;;25.01;60.44;101984.88;5056186;27;96487;-28
2023/09/07 08:29:05;;;;;;;7.45;4.43;;;;;;;25.01;59.95;101984.88;5056466;27;96785;-28
2023/09/07 08:31:33;;;;;;;7.97;3.92;;;;;;;25.08;60.24;101982.34;5037627;27;101453;-27
2023/09/07 08:34:03;;;;;;;8.60;3.92;;;;;;;25.28;59.73;101983.03;5055194;27;97892;-27
2023/09/07 08:36:33;;;;;;;9.95;4.72;;;;;;;25.26;59.59;101979.53;5037991;27;96715;-28
2023/09/07 08:39:05;;;;;;;8.35;3.88;;;;;;;25.33;59.22;101966.75;5056166;27;96678;-28
2023/09/07 08:41:31;;;;;;;6.15;3.90;;;;;;;25.42;59.20;101967.69;5036679;27;101187;-27
2023/09/07 08:43:57;;;;;;;6.63;4.38;;;;;;;25.57;58.11;101979.03;5016661;28;100972;-27
2023/09/07 08:46:23;;;;;;;7.82;4.25;;;;;;;25.60;59.07;101971.25;5015208;28;96633;-28
2023/09/07 08:48:50;;;;;;;7.70;3.88;;;;;;;25.61;59.04;101977.66;5014216;28;96878;-27
2023/09/07 08:51:17;;;;;;;8.48;3.70;;;;;;;25.73;58.85;101975.47;5013804;28;100883;-27
2023/09/07 08:53:45;;;;;;;6.85;4.00;;;;;;;25.96;58.13;101979.44;5013922;28;100577;-27
2023/09/07 08:56:12;;;;;;;7.72;3.60;;;;;;;26.19;58.38;101976.00;5014094;28;96669;-27
2023/09/07 08:58:37;;;;;;;6.47;3.78;;;;;;;26.33;57.91;101985.59;5014051;28;96612;-27
2023/09/07 09:01:03;;;;;;;8.23;4.03;;;;;;;26.38;56.61;101981.25;5015116;28;98068;-28
2023/09/07 09:03:29;;;;;;;5.30;3.33;;;;;;;26.49;57.36;101985.63;5014999;28;99308;-27
2023/09/07 09:05:56;;;;;;;10.15;3.92;;;;;;;26.55;55.57;101976.63;5013497;28;96570;-27
2023/09/07 09:08:24;;;;;;;9.85;3.88;;;;;;;26.63;56.94;101976.63;5013840;28;96875;-27
2023/09/07 09:10:58;;;;;;;6.72;4.07;;;;;;;26.75;56.38;101976.31;5013393;28;101023;-27
2023/09/07 09:13:31;;;;;;;7.15;4.00;;;;;;;26.86;54.98;101979.59;5014931;28;97633;-28
2023/09/07 09:16:00;;;;;;;10.85;4.68;;;;;;;26.95;55.32;101977.66;5013767;28;96566;-27
2023/09/07 09:18:26;;;;;;;5.38;3.70;;;;;;;27.07;55.77;101981.81;5013726;28;96835;-27
2023/09/07 09:20:52;;;;;;;6.45;3.95;;;;;;;27.20;55.85;101970.22;5014593;28;99358;-28
2023/09/07 09:23:18;;;;;;;5.35;3.20;;;;;;;27.18;54.19;101976.97;5013622;28;100828;-27
2023/09/07 09:25:43;;;;;;;8.52;3.65;;;;;;;27.16;55.13;101963.22;5014952;28;96691;-28
2023/09/07 09:28:10;;;;;;;5.70;3.75;;;;;;;27.33;54.91;101980.78;5015112;28;96842;-27
2023/09/07 09:30:36;;;;;;;4.55;3.00;;;;;;;27.25;53.06;101964.13;5012093;28;101169;-28
2023/09/07 09:33:02;;;;;;;9.25;3.67;;;;;;;27.28;53.84;101977.66;5013166;28;100933;-27
2023/09/07 09:35:29;;;;;;;5.88;2.72;;;;;;;27.42;54.00;101984.44;5012862;28;96793;-27
2023/09/07 09:37:55;;;;;;;7.63;3.60;;;;;;;27.56;52.33;101983.69;5013453;28;96945;-27
2023/09/07 09:40:20;;;;;;;5.75;2.78;;;;;;;27.53;51.61;101981.28;5014279;28;99299;-26
2023/09/07 09:42:46;;;;;;;7.05;3.28;;;;;;;27.53;51.53;101982.13;5028100;27;99169;-27
2023/09/07 09:45:12;;;;;;;4.20;2.88;;;;;;;27.66;53.00;101959.28;5054639;27;96514;-27
2023/09/07 09:47:40;;;;;;;5.47;3.00;;;;;;;27.89;51.94;101972.47;5037223;27;96868;-27
2023/09/07 09:50:07;;;;;;;6.97;4.20;;;;;;;27.96;51.93;101984.63;5054683;27;99314;-27
2023/09/07 09:52:35;;;;;;;4.82;3.15;;;;;;;27.95;51.51;101971.72;5036480;27;101205;-28
2023/09/07 09:55:05;;;;;;;5.05;3.15;;;;;;;27.93;50.98;101977.47;5036126;27;96699;-27
2023/09/07 09:57:31;;;;;;;5.72;3.38;;;;;;;28.09;51.23;101982.09;5036523;27;96935;-27
2023/09/07 09:59:58;;;;;;;5.22;2.97;;;;;;;28.28;51.29;101966.81;5036402;27;101093;-27
2023/09/07 10:02:25;;;;;;;5.50;2.80;;;;;;;28.46;51.13;101966.56;5036243;27;100302;-27
2023/09/07 10:04:51;;;;;;;7.00;3.33;;;;;;;28.56;50.42;101967.19;5036589;27;96698;-27
2023/09/07 10:07:19;;;;;;;6.72;3.20;;;;;;;28.59;49.98;101971.53;5054749;27;96837;-28
2023/09/07 10:09:44;;;;;;;5.47;3.08;;;;;;;28.54;50.35;101960.91;5036287;27;101012;-27
2023/09/07 10:12:12;;;;;;;8.55;4.03;;;;;;;28.74;48.92;101954.84;5055294;27;97689;-27
2023/09/07 10:14:42;;;;;;;9.68;3.70;;;;;;;28.69;50.06;101960.97;5054878;27;96497;-27
2023/09/07 10:17:09;;;;;;;5.72;3.03;;;;;;;28.76;49.30;101961.09;5036449;27;96824;-28
2023/09/07 10:19:37;;;;;;;5.60;3.42;;;;;;;28.96;48.70;101948.38;5035656;27;101046;-27
2023/09/07 10:22:03;;;;;;;11.43;3.30;;;;;;;29.09;49.18;101949.66;5054235;27;97286;-27
2023/09/07 10:24:35;;;;;;;5.68;3.17;;;;;;;29.16;47.97;101954.28;5036312;27;97060;-27
2023/09/07 10:27:02;;;;;;;6.20;3.00;;;;;;;29.04;48.86;101947.41;5054761;27;96787;-27
2023/09/07 10:29:28;;;;;;;5.40;2.83;;;;;;;29.16;49.34;101948.72;5054440;27;99629;-27
2023/09/07 10:31:53;;;;;;;7.50;2.78;;;;;;;29.27;48.85;101943.72;5054355;27;98014;-27
2023/09/07 10:34:20;;;;;;;4.75;3.05;;;;;;;29.32;48.07;101957.94;5054729;27;96663;-27
2023/09/07 10:36:46;;;;;;;4.43;2.78;;;;;;;29.46;47.85;101953.44;5036440;27;96883;-27
2023/09/07 10:39:12;;;;;;;6.05;2.85;;;;;;;29.53;47.92;101941.34;5035807;27;100782;-27
2023/09/07 10:41:45;;;;;;;5.35;2.83;;;;;;;29.76;47.68;101941.22;5035716;27;101051;-27
2023/09/07 10:44:10;;;;;;;6.68;3.05;;;;;;;29.83;46.41;101932.94;5035362;27;96968;-27
2023/09/07 10:46:37;;;;;;;5.32;3.20;;;;;;;29.87;46.72;101942.66;5054392;27;96841;-27
2023/09/07 10:49:02;;;;;;;5.13;2.80;;;;;;;30.03;46.99;101950.81;5035564;27;101006;-27
2023/09/07 10:51:29;;;;;;;4.75;2.63;;;;;;;30.25;46.98;101939.69;5053895;27;99369;-28
2023/09/07 10:53:55;;;;;;;4.38;2.42;;;;;;;30.21;46.72;101936.41;5054402;27;96600;-27
2023/09/07 10:56:25;;;;;;;4.03;2.53;;;;;;;30.28;45.25;101944.91;5035901;27;96917;-27
2023/09/07 10:58:54;;;;;;;5.10;2.58;;;;;;;30.16;44.84;101938.91;5057248;27;99310;-27
2023/09/07 11:01:20;;;;;;;4.90;2.50;;;;;;;30.24;45.25;101938.78;5039484;27;100716;-27
2023/09/07 11:03:45;;;;;;;4.88;2.50;;;;;;;30.22;45.79;101940.03;5039174;27;96702;-28
2023/09/07 11:06:20;;;;;;;4.75;2.50;;;;;;;30.36;44.43;101933.56;5057790;27;96865;-27
2023/09/07 11:08:48;;;;;;;6.68;2.40;;;;;;;30.33;43.62;101930.31;5056781;27;99976;-28
2023/09/07 11:11:14;;;;;;;4.10;2.30;;;;;;;30.24;44.34;101936.00;5057330;27;98026;-27
2023/09/07 11:13:39;;;;;;;4.05;1.92;;;;;;;30.27;43.12;101938.44;5057320;27;96573;-27
2023/09/07 11:16:08;;;;;;;4.35;2.45;;;;;;;30.22;44.49;101926.06;5057385;27;96799;-27
2023/09/07 11:18:37;;;;;;;5.25;2.13;;;;;;;30.44;44.33;101916.69;5038781;27;99068;-27